Time;durP1;ratioP1;P1;durP2;ratioP2;P2;SDS_P1;SDS_P2;PMS_P1;PMS_P2;Temp;Humidity;BMP_temperature;BMP_pressure;BME280_temperature;BME280_humidity;BME280_pressure;Samples;Min_cycle;Max_cycle;Signal;HPM_P1;HPM_P2
2022/09/04 00:01:47;;;;;;;8.35;4.32;;;;;;;;;;5031119;28;20030;-76
2022/09/04 00:04:34;;;;;;;7.90;5.25;;;;;;;;;;5033991;28;20360;-75
2022/09/04 00:07:30;;;;;;;9.45;5.43;;;;;;;;;;5033645;28;20075;-76
2022/09/04 00:10:10;;;;;;;9.65;4.85;;;;;;;;;;5032377;28;20112;-76
2022/09/04 00:13:07;;;;;;;9.13;5.13;;;;;;;;;;5032276;28;20451;-76
2022/09/04 00:15:38;;;;;;;10.27;6.05;;;;;;;;;;5033024;28;20045;-75
2022/09/04 00:18:19;;;;;;;6.28;5.28;;;;;;;;;;5017682;28;20033;-77
2022/09/04 00:20:44;;;;;;;6.87;4.73;;;;;;;;;;5012648;28;20029;-75
2022/09/04 00:23:24;;;;;;;9.70;5.47;;;;;;;;;;5012293;28;20274;-75
2022/09/04 00:26:09;;;;;;;6.65;4.82;;;;;;;;;;5013264;28;20088;-76
2022/09/04 00:28:44;;;;;;;6.88;5.75;;;;;;;;;;5012809;28;20117;-75
2022/09/04 00:31:16;;;;;;;4.85;4.35;;;;;;;;;;5012757;28;20414;-74
2022/09/04 00:34:00;;;;;;;12.40;5.10;;;;;;;;;;5013171;28;20026;-76
2022/09/04 00:36:27;;;;;;;12.20;4.80;;;;;;;;;;5012574;28;20029;-76
2022/09/04 00:38:59;;;;;;;6.93;4.28;;;;;;;;;;5029078;28;20033;-75
2022/09/04 00:41:33;;;;;;;9.13;4.80;;;;;;;;;;5015699;28;20516;-75
2022/09/04 00:44:20;;;;;;;7.97;4.72;;;;;;;;;;5013238;28;20034;-76
2022/09/04 00:46:50;;;;;;;5.80;4.65;;;;;;;;;;5011908;28;20040;-75
2022/09/04 00:49:27;;;;;;;9.98;4.88;;;;;;;;;;5012282;28;20022;-74
2022/09/04 00:52:10;;;;;;;6.72;4.82;;;;;;;;;;5011408;28;20456;-75
2022/09/04 00:55:06;;;;;;;5.75;4.00;;;;;;;;;;5012317;28;20038;-74
2022/09/04 00:57:54;;;;;;;11.05;4.60;;;;;;;;;;5027942;28;20492;-74
2022/09/04 01:00:21;;;;;;;6.22;4.43;;;;;;;;;;5013309;28;20029;-75
2022/09/04 01:03:11;;;;;;;9.10;4.93;;;;;;;;;;5043136;28;20033;-76
2022/09/04 01:06:08;;;;;;;7.60;4.20;;;;;;;;;;5032230;28;20025;-74
2022/09/04 01:08:46;;;;;;;7.25;4.10;;;;;;;;;;5032228;28;20358;-75
2022/09/04 01:11:30;;;;;;;9.88;4.28;;;;;;;;;;5032222;28;20033;-75
2022/09/04 01:14:19;;;;;;;8.18;4.13;;;;;;;;;;5030843;28;20025;-75
2022/09/04 01:17:03;;;;;;;10.57;5.18;;;;;;;;;;5030219;28;20037;-75
2022/09/04 01:19:28;;;;;;;7.47;4.75;;;;;;;;;;5032274;28;20017;-74
2022/09/04 01:22:22;;;;;;;9.85;4.70;;;;;;;;;;5031804;28;20031;-75
2022/09/04 01:25:28;;;;;;;7.13;4.30;;;;;;;;;;5030727;28;20378;-74
2022/09/04 01:28:12;;;;;;;6.78;4.88;;;;;;;;;;5030735;28;20060;-75
2022/09/04 01:31:18;;;;;;;5.22;4.20;;;;;;;;;;5029953;28;20103;-75
2022/09/04 01:34:07;;;;;;;6.03;4.70;;;;;;;;;;5010956;28;20030;-75
2022/09/04 01:36:58;;;;;;;8.88;5.00;;;;;;;;;;5010324;28;20033;-75
2022/09/04 01:39:27;;;;;;;7.90;5.25;;;;;;;;;;5009756;28;20044;-75
2022/09/04 01:42:07;;;;;;;11.85;5.30;;;;;;;;;;5010296;28;20025;-74
2022/09/04 01:44:34;;;;;;;6.40;4.82;;;;;;;;;;5041116;28;20033;-76
2022/09/04 01:47:10;;;;;;;6.93;5.05;;;;;;;;;;5029498;28;20394;-74
2022/09/04 01:49:43;;;;;;;7.25;4.50;;;;;;;;;;5031801;28;20489;-75
2022/09/04 01:52:36;;;;;;;8.73;4.82;;;;;;;;;;5031902;28;20022;-74
2022/09/04 01:55:17;;;;;;;6.03;4.65;;;;;;;;;;5031030;28;20953;-75
2022/09/04 01:57:54;;;;;;;6.95;5.05;;;;;;;;;;5030402;28;20032;-77
2022/09/04 02:00:24;;;;;;;8.13;5.25;;;;;;;;;;5030595;28;20083;-76
2022/09/04 02:03:11;;;;;;;7.50;5.07;;;;;;;;;;5029640;28;20037;-75
2022/09/04 02:05:54;;;;;;;6.60;5.22;;;;;;;;;;5030956;28;20341;-76
2022/09/04 02:08:38;;;;;;;7.47;5.30;;;;;;;;;;5029460;28;20029;-76
2022/09/04 02:11:11;;;;;;;9.52;5.63;;;;;;;;;;5030234;28;20044;-73
2022/09/04 02:13:52;;;;;;;6.05;5.15;;;;;;;;;;5031364;28;20060;-75
2022/09/04 02:16:44;;;;;;;8.20;5.47;;;;;;;;;;5029941;28;20033;-75
2022/09/04 02:19:42;;;;;;;9.63;4.97;;;;;;;;;;5033106;28;20041;-74
2022/09/04 02:22:38;;;;;;;8.55;5.00;;;;;;;;;;5020103;28;20037;-74
2022/09/04 02:25:21;;;;;;;8.38;5.28;;;;;;;;;;5030789;28;20029;-76
2022/09/04 02:28:06;;;;;;;8.85;4.95;;;;;;;;;;5029403;28;20128;-76
2022/09/04 02:30:47;;;;;;;6.10;4.28;;;;;;;;;;5040901;28;20049;-74
2022/09/04 02:33:21;;;;;;;7.70;5.45;;;;;;;;;;5030781;28;20060;-75
2022/09/04 02:35:55;;;;;;;9.38;4.97;;;;;;;;;;5030443;28;20030;-74
2022/09/04 02:38:50;;;;;;;6.10;5.13;;;;;;;;;;5030355;28;20028;-76
2022/09/04 02:41:30;;;;;;;8.02;5.10;;;;;;;;;;5028840;28;20405;-77
2022/09/04 02:44:27;;;;;;;7.57;4.70;;;;;;;;;;5030289;28;20485;-75
2022/09/04 02:47:00;;;;;;;8.60;5.93;;;;;;;;;;5028661;28;20025;-75
2022/09/04 02:49:32;;;;;;;7.00;5.38;;;;;;;;;;5029935;28;20045;-76
2022/09/04 02:52:47;;;;;;;6.95;5.75;;;;;;;;;;5030227;28;20072;-75
2022/09/04 02:55:32;;;;;;;6.03;5.45;;;;;;;;;;5030729;28;20124;-75
2022/09/04 02:58:13;;;;;;;23.40;17.55;;;;;;;;;;5029627;28;20021;-76
2022/09/04 03:00:54;;;;;;;8.90;6.85;;;;;;;;;;5029414;28;20025;-74
2022/09/04 03:03:23;;;;;;;10.00;7.22;;;;;;;;;;5029352;28;20041;-74
2022/09/04 03:06:07;;;;;;;13.27;7.00;;;;;;;;;;5029121;28;20017;-76
2022/09/04 03:09:00;;;;;;;8.98;6.82;;;;;;;;;;5031294;28;20032;-74
2022/09/04 03:11:30;;;;;;;11.20;8.00;;;;;;;;;;5028713;28;20041;-76
2022/09/04 03:14:02;;;;;;;8.93;7.20;;;;;;;;;;5034069;28;20064;-75
2022/09/04 03:16:36;;;;;;;12.68;7.90;;;;;;;;;;5032720;28;20057;-76
2022/09/04 03:19:28;;;;;;;12.20;7.70;;;;;;;;;;5033937;28;20033;-75
2022/09/04 03:22:22;;;;;;;9.43;7.65;;;;;;;;;;5034187;28;20035;-75
2022/09/04 03:25:22;;;;;;;14.77;8.50;;;;;;;;;;5021828;28;20041;-75
2022/09/04 03:27:47;;;;;;;12.20;8.13;;;;;;;;;;5029673;28;20014;-75
2022/09/04 03:30:14;;;;;;;13.05;8.50;;;;;;;;;;5017319;28;20045;-74
2022/09/04 03:33:02;;;;;;;9.48;7.63;;;;;;;;;;5012326;28;20041;-74
2022/09/04 03:35:46;;;;;;;10.57;8.18;;;;;;;;;;5013674;28;20026;-76
2022/09/04 03:38:36;;;;;;;11.30;7.90;;;;;;;;;;5012814;28;20477;-74
2022/09/04 03:41:17;;;;;;;11.85;9.15;;;;;;;;;;5014229;28;20378;-74
2022/09/04 03:43:48;;;;;;;11.00;8.45;;;;;;;;;;5014496;28;20036;-74
2022/09/04 03:46:35;;;;;;;11.68;8.32;;;;;;;;;;5028633;28;20366;-74
2022/09/04 03:49:50;;;;;;;10.48;8.07;;;;;;;;;;5033258;28;20044;-74
2022/09/04 03:52:41;;;;;;;13.50;9.15;;;;;;;;;;5011934;28;20030;-75
2022/09/04 03:55:26;;;;;;;13.32;8.93;;;;;;;;;;5012632;28;20052;-75
2022/09/04 03:58:19;;;;;;;18.65;8.70;;;;;;;;;;5029293;28;20036;-75
2022/09/04 04:01:08;;;;;;;14.40;9.07;;;;;;;;;;5026783;28;20476;-74
2022/09/04 04:04:00;;;;;;;19.13;9.73;;;;;;;;;;5033579;28;20025;-75
2022/09/04 04:06:47;;;;;;;11.32;9.25;;;;;;;;;;5025305;28;20045;-76
2022/09/04 04:09:36;;;;;;;16.52;9.23;;;;;;;;;;5032573;28;20534;-74
2022/09/04 04:12:26;;;;;;;12.88;8.75;;;;;;;;;;5033206;28;20084;-74
2022/09/04 04:15:10;;;;;;;13.65;8.45;;;;;;;;;;5031496;28;20203;-74
2022/09/04 04:17:45;;;;;;;10.90;8.95;;;;;;;;;;5048326;28;20473;-74
2022/09/04 04:20:44;;;;;;;11.88;8.50;;;;;;;;;;5032123;28;20424;-75
2022/09/04 04:23:28;;;;;;;14.55;8.55;;;;;;;;;;5048354;28;20040;-75
2022/09/04 04:26:12;;;;;;;11.55;7.88;;;;;;;;;;5039576;28;20080;-75
2022/09/04 04:29:07;;;;;;;13.48;8.38;;;;;;;;;;5012870;28;20025;-75
2022/09/04 04:31:44;;;;;;;13.02;8.93;;;;;;;;;;5012786;28;20046;-75
2022/09/04 04:34:27;;;;;;;12.45;9.05;;;;;;;;;;5013723;28;20030;-76
2022/09/04 04:37:22;;;;;;;12.25;8.77;;;;;;;;;;5011722;28;20673;-75
2022/09/04 04:40:00;;;;;;;12.82;8.60;;;;;;;;;;5008671;28;20106;-75
2022/09/04 04:42:47;;;;;;;14.63;8.45;;;;;;;;;;5012335;28;20030;-75
2022/09/04 04:48:35;;;;;;;11.20;9.00;;;;;;;;;;5032343;28;20036;-76
2022/09/04 04:51:30;;;;;;;21.05;11.43;;;;;;;;;;5032484;28;20025;-76
2022/09/04 04:54:05;;;;;;;20.27;12.77;;;;;;;;;;5031600;28;20037;-75
2022/09/04 04:56:44;;;;;;;12.68;9.07;;;;;;;;;;5032387;28;20151;-74
2022/09/04 04:59:42;;;;;;;11.38;6.95;;;;;;;;;;5032623;28;20101;-75
2022/09/04 05:02:29;;;;;;;10.90;5.72;;;;;;;;;;5012173;28;20122;-76
2022/09/04 05:05:12;;;;;;;9.20;5.72;;;;;;;;;;5012399;28;20399;-75
2022/09/04 05:07:45;;;;;;;7.50;5.40;;;;;;;;;;5010088;28;20076;-77
2022/09/04 05:10:34;;;;;;;8.10;5.68;;;;;;;;;;5011884;28;20038;-75
2022/09/04 05:13:02;;;;;;;8.18;5.57;;;;;;;;;;5010893;28;20045;-73
2022/09/04 05:15:42;;;;;;;9.65;5.55;;;;;;;;;;5009888;28;20396;-75
2022/09/04 05:18:46;;;;;;;8.88;4.75;;;;;;;;;;5010704;28;20034;-75
2022/09/04 05:21:22;;;;;;;7.35;5.43;;;;;;;;;;5010085;28;20046;-74
2022/09/04 05:24:02;;;;;;;6.80;5.38;;;;;;;;;;5015733;28;20087;-74
2022/09/04 05:26:47;;;;;;;8.00;4.82;;;;;;;;;;5031796;28;20057;-77
2022/09/04 05:29:25;;;;;;;7.90;5.00;;;;;;;;;;5029581;28;20056;-75
2022/09/04 05:32:06;;;;;;;6.03;5.00;;;;;;;;;;5027158;28;20025;-75
2022/09/04 05:34:50;;;;;;;7.28;4.85;;;;;;;;;;5031590;28;20493;-74
2022/09/04 05:37:28;;;;;;;5.40;4.82;;;;;;;;;;5030038;28;20029;-75
2022/09/04 05:39:53;;;;;;;11.00;5.30;;;;;;;;;;5032077;28;20497;-74
2022/09/04 05:42:22;;;;;;;6.43;5.20;;;;;;;;;;5031906;28;20032;-75
2022/09/04 05:45:26;;;;;;;8.15;5.78;;;;;;;;;;5025984;28;20397;-76
2022/09/04 05:48:13;;;;;;;8.18;5.43;;;;;;;;;;5009327;28;20461;-75
2022/09/04 05:50:48;;;;;;;6.13;5.25;;;;;;;;;;5011328;28;20029;-75
2022/09/04 05:53:45;;;;;;;9.07;5.53;;;;;;;;;;5010815;28;20058;-75
2022/09/04 05:56:19;;;;;;;6.63;5.18;;;;;;;;;;5010455;28;20033;-75
2022/09/04 05:59:00;;;;;;;7.85;5.25;;;;;;;;;;5012064;28;20029;-75
2022/09/04 06:01:58;;;;;;;7.53;4.95;;;;;;;;;;5026441;28;20120;-75
2022/09/04 06:04:55;;;;;;;9.70;5.90;;;;;;;;;;5030705;28;20033;-75
2022/09/04 06:07:35;;;;;;;9.05;5.00;;;;;;;;;;5021135;28;20504;-75
2022/09/04 06:10:03;;;;;;;10.18;7.68;;;;;;;;;;5029241;28;20373;-76
2022/09/04 06:12:41;;;;;;;9.73;5.60;;;;;;;;;;5030573;28;20025;-75
2022/09/04 06:15:15;;;;;;;6.35;5.30;;;;;;;;;;5022522;28;20025;-76
2022/09/04 06:17:50;;;;;;;8.13;5.22;;;;;;;;;;5011964;28;20452;-75
2022/09/04 06:20:41;;;;;;;6.60;5.20;;;;;;;;;;5011510;28;20065;-75
2022/09/04 06:23:07;;;;;;;10.27;6.10;;;;;;;;;;5025968;28;20036;-74
2022/09/04 06:26:26;;;;;;;10.90;5.35;;;;;;;;;;5028723;28;20263;-74
2022/09/04 06:29:09;;;;;;;9.70;5.60;;;;;;;;;;5013426;28;20054;-74
2022/09/04 06:32:03;;;;;;;7.70;5.38;;;;;;;;;;5026985;28;20179;-75
2022/09/04 06:34:40;;;;;;;7.90;5.30;;;;;;;;;;5012947;28;20136;-75
2022/09/04 06:37:06;;;;;;;8.43;5.60;;;;;;;;;;5011712;28;20034;-74
2022/09/04 06:39:56;;;;;;;9.95;5.93;;;;;;;;;;5026237;28;20319;-74
2022/09/04 06:42:36;;;;;;;6.90;5.22;;;;;;;;;;5010304;28;20029;-76
2022/09/04 06:45:21;;;;;;;10.15;4.93;;;;;;;;;;5031487;28;20195;-76
2022/09/04 06:47:56;;;;;;;10.07;6.20;;;;;;;;;;5029779;28;20037;-75
2022/09/04 06:50:32;;;;;;;9.05;5.90;;;;;;;;;;5030100;28;20032;-75
2022/09/04 06:53:14;;;;;;;8.15;5.93;;;;;;;;;;5021884;28;20022;-76
2022/09/04 06:55:56;;;;;;;10.57;5.70;;;;;;;;;;5025929;28;20033;-76
2022/09/04 06:58:27;;;;;;;9.45;6.03;;;;;;;;;;5020423;28;20052;-74
2022/09/04 07:01:11;;;;;;;5.95;4.95;;;;;;;;;;5010636;28;20030;-75
2022/09/04 07:03:39;;;;;;;7.22;5.40;;;;;;;;;;5010349;28;20030;-76
2022/09/04 07:06:17;;;;;;;8.77;5.97;;;;;;;;;;5011192;28;20030;-75
2022/09/04 07:09:09;;;;;;;7.43;5.63;;;;;;;;;;5010158;28;20026;-74
2022/09/04 07:11:53;;;;;;;12.40;6.03;;;;;;;;;;5010761;28;20030;-74
2022/09/04 07:14:35;;;;;;;8.95;6.60;;;;;;;;;;5022748;28;20033;-75
2022/09/04 07:17:18;;;;;;;7.78;5.95;;;;;;;;;;5030295;28;20029;-76
2022/09/04 07:20:04;;;;;;;10.80;5.68;;;;;;;;;;5030127;28;20087;-76
2022/09/04 07:22:49;;;;;;;6.68;5.90;;;;;;;;;;5029817;28;20572;-76
2022/09/04 07:25:25;;;;;;;8.23;6.55;;;;;;;;;;5029878;28;20038;-75
2022/09/04 07:28:08;;;;;;;8.98;6.45;;;;;;;;;;5011267;28;20077;-75
2022/09/04 07:30:59;;;;;;;9.77;6.57;;;;;;;;;;5024815;28;20049;-74
2022/09/04 07:33:42;;;;;;;9.13;6.30;;;;;;;;;;5010287;28;20025;-76
2022/09/04 07:36:24;;;;;;;9.13;6.00;;;;;;;;;;5026113;28;20375;-74
2022/09/04 07:38:59;;;;;;;9.07;5.68;;;;;;;;;;5025750;28;20114;-75
2022/09/04 07:41:58;;;;;;;9.02;5.93;;;;;;;;;;5010258;28;20541;-75
2022/09/04 07:44:59;;;;;;;7.47;5.75;;;;;;;;;;5017983;28;20033;-74
2022/09/04 07:47:35;;;;;;;8.43;5.67;;;;;;;;;;5008504;28;20061;-74
2022/09/04 07:50:21;;;;;;;9.65;6.25;;;;;;;;;;5025794;28;20478;-75
2022/09/04 07:53:01;;;;;;;9.27;5.97;;;;;;;;;;5010700;28;20030;-75
2022/09/04 07:55:45;;;;;;;12.10;6.57;;;;;;;;;;5013758;28;20030;-75
2022/09/04 07:58:30;;;;;;;9.30;5.60;;;;;;;;;;5029529;28;20842;-75
2022/09/04 08:01:17;;;;;;;7.85;6.10;;;;;;;;;;5033997;28;20052;-74
2022/09/04 08:04:09;;;;;;;10.10;6.35;;;;;;;;;;5033830;28;20037;-74
2022/09/04 08:06:56;;;;;;;9.43;6.35;;;;;;;;;;5033563;28;20425;-75
2022/09/04 08:09:37;;;;;;;7.50;5.53;;;;;;;;;;5033571;28;20116;-74
2022/09/04 08:12:30;;;;;;;;;;;;;;;;;;5034028;28;20446;-75
2022/09/04 08:15:13;;;;;;;10.50;6.18;;;;;;;;;;5033173;28;20195;-74
2022/09/04 08:18:00;;;;;;;8.18;6.05;;;;;;;;;;5033090;28;20120;-74
2022/09/04 08:21:14;;;;;;;8.32;5.70;;;;;;;;;;5033884;28;20029;-75
2022/09/04 08:24:00;;;;;;;11.60;6.95;;;;;;;;;;5028646;28;20521;-74
2022/09/04 08:27:08;;;;;;;8.88;6.13;;;;;;;;;;5032287;28;20040;-74
2022/09/04 08:30:04;;;;;;;8.88;6.53;;;;;;;;;;5017706;28;20556;-75
2022/09/04 08:32:44;;;;;;;15.63;7.32;;;;;;;;;;5013740;28;20444;-75
2022/09/04 08:35:52;;;;;;;7.63;6.03;;;;;;;;;;5011637;28;20065;-76
2022/09/04 08:38:25;;;;;;;10.48;6.28;;;;;;;;;;5010654;28;20034;-76
2022/09/04 08:41:09;;;;;;;7.63;6.65;;;;;;;;;;5013212;28;20100;-75
2022/09/04 08:43:54;;;;;;;11.13;6.90;;;;;;;;;;5019690;28;20126;-76
2022/09/04 08:47:04;;;;;;;7.53;5.72;;;;;;;;;;5032275;28;20021;-76
2022/09/04 08:50:12;;;;;;;9.80;6.18;;;;;;;;;;5019486;28;20038;-75
2022/09/04 08:52:59;;;;;;;7.72;6.75;;;;;;;;;;5013503;28;20064;-77
2022/09/04 08:55:50;;;;;;;7.10;6.05;;;;;;;;;;5013786;28;20028;-74
2022/09/04 08:58:49;;;;;;;9.65;7.03;;;;;;;;;;5027322;28;20044;-78
2022/09/04 09:01:17;;;;;;;7.05;6.15;;;;;;;;;;5049336;28;20412;-76
2022/09/04 09:04:10;;;;;;;9.45;5.93;;;;;;;;;;5032330;28;20108;-75
2022/09/04 09:07:12;;;;;;;7.43;5.90;;;;;;;;;;5030465;28;20087;-75
2022/09/04 09:09:47;;;;;;;8.15;6.38;;;;;;;;;;5029078;28;20041;-76
2022/09/04 09:12:55;;;;;;;9.27;6.10;;;;;;;;;;5030783;28;20091;-75
2022/09/04 09:15:39;;;;;;;8.43;6.40;;;;;;;;;;5033271;28;20033;-76
2022/09/04 09:18:42;;;;;;;9.45;7.38;;;;;;;;;;5034439;28;20563;-77
2022/09/04 09:21:16;;;;;;;8.23;6.15;;;;;;;;;;5032026;28;20440;-75
2022/09/04 09:24:22;;;;;;;7.38;6.50;;;;;;;;;;5030781;28;20036;-76
2022/09/04 09:27:48;;;;;;;7.13;6.38;;;;;;;;;;5031301;28;20059;-77
2022/09/04 09:30:18;;;;;;;8.98;5.70;;;;;;;;;;5015430;28;20414;-77
2022/09/04 09:32:58;;;;;;;9.02;6.70;;;;;;;;;;5012203;28;20778;-74
2022/09/04 09:35:36;;;;;;;8.38;6.45;;;;;;;;;;5013300;28;20026;-73
2022/09/04 09:38:26;;;;;;;8.10;6.10;;;;;;;;;;5013179;28;20516;-76
2022/09/04 09:41:13;;;;;;;8.13;6.95;;;;;;;;;;5029427;28;20029;-74
2022/09/04 09:43:59;;;;;;;11.25;6.20;;;;;;;;;;5030815;28;20037;-74
2022/09/04 09:47:00;;;;;;;13.23;8.52;;;;;;;;;;5029582;28;20529;-76
2022/09/04 09:49:55;;;;;;;8.27;6.85;;;;;;;;;;5026358;28;20521;-75
2022/09/04 09:52:33;;;;;;;7.50;6.65;;;;;;;;;;5030077;28;20017;-74
2022/09/04 09:55:26;;;;;;;10.80;6.93;;;;;;;;;;5046623;28;20024;-76
2022/09/04 09:58:25;;;;;;;7.38;6.63;;;;;;;;;;5030103;28;20100;-74
2022/09/04 10:01:03;;;;;;;9.55;6.75;;;;;;;;;;5029876;28;20025;-74
2022/09/04 10:03:37;;;;;;;13.55;7.50;;;;;;;;;;5030624;28;20021;-75
2022/09/04 10:06:12;;;;;;;10.18;7.88;;;;;;;;;;5029250;28;20040;-74
2022/09/04 10:08:53;;;;;;;9.57;7.07;;;;;;;;;;5030540;28;20084;-76
2022/09/04 10:11:35;;;;;;;10.23;6.85;;;;;;;;;;5030582;28;20446;-76
2022/09/04 10:14:19;;;;;;;9.52;7.20;;;;;;;;;;5025855;28;20030;-76
2022/09/04 10:17:23;;;;;;;9.73;7.30;;;;;;;;;;5026441;28;20478;-75
2022/09/04 10:19:55;;;;;;;7.35;6.60;;;;;;;;;;5010877;28;20363;-76
2022/09/04 10:22:38;;;;;;;;;;;;;;;;;;5011019;28;20097;-74
2022/09/04 10:25:25;;;;;;;11.77;8.15;;;;;;;;;;5025594;28;19916;-75
2022/09/04 10:27:53;;;;;;;9.65;7.05;;;;;;;;;;5010954;28;20076;-76
2022/09/04 10:30:22;;;;;;;8.85;6.85;;;;;;;;;;5010132;28;20081;-75
2022/09/04 10:33:31;;;;;;;10.27;7.25;;;;;;;;;;5010896;28;20025;-75
2022/09/04 10:36:26;;;;;;;11.57;7.28;;;;;;;;;;5010508;28;20025;-74
2022/09/04 10:42:06;;;;;;;9.93;6.95;;;;;;;;;;5017509;28;20040;-76
2022/09/04 10:45:09;;;;;;;10.63;7.38;;;;;;;;;;5029489;28;20033;-76
2022/09/04 10:47:44;;;;;;;8.23;6.90;;;;;;;;;;5008168;28;20065;-75
2022/09/04 10:50:40;;;;;;;10.60;6.30;;;;;;;;;;5028799;28;20067;-74
2022/09/04 10:53:55;;;;;;;7.10;5.80;;;;;;;;;;5029801;28;20549;-76
2022/09/04 10:56:45;;;;;;;7.60;5.85;;;;;;;;;;4993224;28;20049;-76
2022/09/04 10:59:38;;;;;;;8.00;5.95;;;;;;;;;;4982094;28;20048;-76
2022/09/04 11:02:10;;;;;;;12.07;6.32;;;;;;;;;;5009950;28;20163;-77
2022/09/04 11:04:53;;;;;;;8.57;6.15;;;;;;;;;;5009517;28;20026;-75
2022/09/04 11:07:25;;;;;;;9.68;5.80;;;;;;;;;;5010105;28;20036;-74
2022/09/04 11:10:06;;;;;;;5.95;5.13;;;;;;;;;;5010488;28;20032;-75
2022/09/04 11:12:53;;;;;;;14.52;6.35;;;;;;;;;;5027440;28;20040;-75
2022/09/04 11:15:56;;;;;;;9.43;6.43;;;;;;;;;;5027616;28;20080;-77
2022/09/04 11:18:50;;;;;;;6.97;5.53;;;;;;;;;;5028472;28;20108;-76
2022/09/04 11:21:40;;;;;;;9.63;5.85;;;;;;;;;;5029963;28;20107;-77
2022/09/04 11:24:06;;;;;;;7.23;6.30;;;;;;;;;;5030084;28;20380;-76
2022/09/04 11:26:53;;;;;;;10.55;6.13;;;;;;;;;;5027719;28;20029;-74
2022/09/04 11:29:40;;;;;;;8.85;6.05;;;;;;;;;;5025714;28;20714;-75
2022/09/04 11:32:33;;;;;;;7.22;5.80;;;;;;;;;;5028179;28;20539;-76
2022/09/04 11:35:05;;;;;;;8.00;6.07;;;;;;;;;;5031386;28;20032;-79
2022/09/04 11:38:09;;;;;;;10.05;6.45;;;;;;;;;;5020445;28;20054;-74
2022/09/04 11:40:49;;;;;;;7.30;5.88;;;;;;;;;;5012841;28;20041;-74
2022/09/04 11:43:17;;;;;;;7.80;5.83;;;;;;;;;;5033602;28;20026;-74
2022/09/04 11:46:17;;;;;;;8.32;5.53;;;;;;;;;;5015020;28;20393;-75
2022/09/04 11:49:25;;;;;;;8.38;5.70;;;;;;;;;;5011628;28;20034;-75
2022/09/04 11:52:12;;;;;;;6.53;4.50;;;;;;;;;;5014216;28;20053;-75
2022/09/04 11:55:21;;;;;;;7.00;4.43;;;;;;;;;;5031530;28;20404;-75
2022/09/04 11:58:17;;;;;;;12.77;6.00;;;;;;;;;;4996039;28;20050;-74
2022/09/04 12:01:14;;;;;;;6.35;5.13;;;;;;;;;;5031163;28;20394;-75
2022/09/04 12:04:10;;;;;;;4.78;4.30;;;;;;;;;;5014712;28;20021;-75
2022/09/04 12:07:12;;;;;;;5.25;4.85;;;;;;;;;;5013123;28;20034;-76
2022/09/04 12:10:16;;;;;;;6.22;4.88;;;;;;;;;;5012854;28;20116;-77
2022/09/04 12:12:45;;;;;;;6.70;5.20;;;;;;;;;;5009814;28;20038;-74
2022/09/04 12:15:54;;;;;;;9.55;5.78;;;;;;;;;;5011476;28;20033;-74
2022/09/04 12:19:04;;;;;;;11.65;5.80;;;;;;;;;;5012527;28;20026;-75
2022/09/04 12:21:51;;;;;;;6.78;4.78;;;;;;;;;;5007665;28;20026;-77
2022/09/04 12:24:54;;;;;;;5.65;4.20;;;;;;;;;;5012666;28;20385;-76
2022/09/04 12:27:42;;;;;;;10.13;4.68;;;;;;;;;;5024780;28;20025;-75
2022/09/04 12:30:34;;;;;;;7.25;4.20;;;;;;;;;;5030729;28;20405;-73
2022/09/04 12:33:18;;;;;;;4.65;4.13;;;;;;;;;;5032095;28;20078;-75
2022/09/04 12:36:21;;;;;;;7.05;4.85;;;;;;;;;;5031444;28;20436;-76
2022/09/04 12:39:11;;;;;;;4.18;3.42;;;;;;;;;;5033989;28;20587;-74
2022/09/04 12:42:13;;;;;;;8.95;4.45;;;;;;;;;;5030975;28;20033;-75
2022/09/04 12:44:59;;;;;;;6.72;4.70;;;;;;;;;;5033394;28;20473;-77
2022/09/04 12:47:32;;;;;;;7.22;4.93;;;;;;;;;;5030699;28;20120;-76
2022/09/04 12:50:18;;;;;;;6.53;3.95;;;;;;;;;;5047253;28;20036;-75
2022/09/04 12:53:24;;;;;;;5.65;4.15;;;;;;;;;;5030357;28;20025;-75
2022/09/04 12:56:11;;;;;;;12.00;7.25;;;;;;;;;;4992950;28;20026;-76
2022/09/04 12:58:39;;;;;;;10.63;7.18;;;;;;;;;;5008874;28;20041;-75
2022/09/04 13:01:35;;;;;;;6.68;4.38;;;;;;;;;;5023742;28;20065;-74
2022/09/04 13:04:10;;;;;;;13.77;5.20;;;;;;;;;;5030984;28;20421;-75
2022/09/04 13:07:07;;;;;;;7.05;4.05;;;;;;;;;;5030788;28;20029;-75
2022/09/04 13:09:50;;;;;;;8.88;5.05;;;;;;;;;;5032036;28;20105;-74
2022/09/04 13:12:41;;;;;;;7.32;5.00;;;;;;;;;;5030564;28;20028;-75
2022/09/04 13:15:18;;;;;;;;;;;;;;;;;;5030882;28;20071;-75
2022/09/04 13:17:57;;;;;;;6.15;3.63;;;;;;;;;;5031650;28;19978;-75
2022/09/04 13:20:45;;;;;;;5.10;4.00;;;;;;;;;;5031639;28;20028;-75
2022/09/04 13:23:57;;;;;;;4.15;3.72;;;;;;;;;;5011191;28;20050;-77
2022/09/04 13:26:59;;;;;;;13.02;8.23;;;;;;;;;;5002901;28;20033;-75
2022/09/04 13:29:53;;;;;;;6.93;4.22;;;;;;;;;;5016291;28;20124;-75
2022/09/04 13:32:37;;;;;;;6.45;4.07;;;;;;;;;;5030270;28;20465;-75
2022/09/04 13:35:40;;;;;;;5.82;4.43;;;;;;;;;;5031729;28;20104;-76
2022/09/04 13:38:17;;;;;;;7.00;4.60;;;;;;;;;;5031356;28;20035;-75
2022/09/04 13:41:17;;;;;;;7.10;5.50;;;;;;;;;;5030925;28;20563;-77
2022/09/04 13:44:04;;;;;;;7.25;5.63;;;;;;;;;;5019826;28;20417;-75
2022/09/04 13:47:02;;;;;;;6.32;4.80;;;;;;;;;;5013932;28;20032;-75
2022/09/04 13:49:38;;;;;;;5.85;4.78;;;;;;;;;;5031129;28;20115;-75
2022/09/04 13:52:23;;;;;;;5.05;4.13;;;;;;;;;;5030824;28;20377;-77
2022/09/04 13:54:53;;;;;;;3.88;3.58;;;;;;;;;;5030801;28;20071;-75
2022/09/04 13:57:26;;;;;;;9.20;5.63;;;;;;;;;;5030093;28;20532;-75
2022/09/04 13:59:57;;;;;;;5.00;4.53;;;;;;;;;;5029541;28;20029;-76
2022/09/04 14:02:26;;;;;;;7.97;5.28;;;;;;;;;;5029514;28;20025;-75
2022/09/04 14:04:59;;;;;;;4.80;4.30;;;;;;;;;;5023824;28;20064;-74
2022/09/04 14:07:30;;;;;;;5.68;3.38;;;;;;;;;;5010529;28;20022;-75
2022/09/04 14:10:00;;;;;;;7.63;4.90;;;;;;;;;;5027034;28;20021;-75
2022/09/04 14:12:48;;;;;;;12.20;6.85;;;;;;;;;;5026503;28;20087;-74
2022/09/04 14:15:33;;;;;;;5.60;4.10;;;;;;;;;;5011392;28;20482;-77
2022/09/04 14:18:01;;;;;;;3.92;3.53;;;;;;;;;;5011603;28;20088;-77
2022/09/04 14:20:41;;;;;;;6.22;4.78;;;;;;;;;;5010677;28;20493;-76
2022/09/04 14:23:20;;;;;;;8.15;3.72;;;;;;;;;;5009829;28;20072;-76
2022/09/04 14:25:55;;;;;;;6.60;4.22;;;;;;;;;;5020338;28;20017;-76
2022/09/04 14:28:38;;;;;;;4.65;3.60;;;;;;;;;;5023364;28;20033;-76
2022/09/04 14:31:26;;;;;;;6.15;4.00;;;;;;;;;;5010272;28;20056;-75
2022/09/04 14:34:14;;;;;;;5.05;3.80;;;;;;;;;;5028652;28;20049;-75
2022/09/04 14:36:45;;;;;;;5.18;3.58;;;;;;;;;;5030114;28;20025;-75
2022/09/04 14:39:13;;;;;;;;;;;;;;;;;;5029147;28;20033;-75
2022/09/04 14:41:57;;;;;;;4.20;2.97;;;;;;;;;;5028570;28;19919;-76
2022/09/04 14:44:44;;;;;;;3.00;2.63;;;;;;;;;;5015684;28;20033;-76
2022/09/04 14:47:41;;;;;;;4.72;3.15;;;;;;;;;;5010555;28;20537;-77
2022/09/04 14:50:12;;;;;;;5.20;4.13;;;;;;;;;;5025537;28;20699;-75
2022/09/04 14:52:53;;;;;;;6.95;4.28;;;;;;;;;;4992841;28;20036;-75
2022/09/04 14:55:29;;;;;;;3.33;2.92;;;;;;;;;;5010329;28;20029;-76
2022/09/04 14:58:09;;;;;;;4.22;3.42;;;;;;;;;;5009766;28;20091;-76
2022/09/04 15:01:05;;;;;;;4.20;2.88;;;;;;;;;;5009945;28;20017;-76
2022/09/04 15:03:47;;;;;;;11.48;5.60;;;;;;;;;;5010086;28;20033;-77
2022/09/04 15:06:24;;;;;;;3.60;3.13;;;;;;;;;;5014033;28;20517;-77
2022/09/04 15:08:50;;;;;;;7.60;3.67;;;;;;;;;;5032359;28;20112;-76
2022/09/04 15:11:29;;;;;;;5.38;4.82;;;;;;;;;;5033456;28;20503;-79
2022/09/04 15:14:25;;;;;;;4.47;3.17;;;;;;;;;;5048082;28;20511;-76
2022/09/04 15:16:54;;;;;;;4.22;3.35;;;;;;;;;;5033378;28;20025;-75
2022/09/04 15:19:34;;;;;;;7.13;3.38;;;;;;;;;;5031879;28;20025;-74
2022/09/04 15:22:03;;;;;;;5.72;3.55;;;;;;;;;;5033584;28;20026;-77
2022/09/04 15:24:38;;;;;;;4.78;4.15;;;;;;;;;;5022027;28;20370;-76
2022/09/04 15:27:27;;;;;;;7.85;4.72;;;;;;;;;;5028269;28;20104;-76
2022/09/04 15:29:52;;;;;;;7.65;4.28;;;;;;;;;;5041873;28;20057;-75
2022/09/04 15:32:29;;;;;;;7.00;4.43;;;;;;;;;;5013685;28;20022;-76
2022/09/04 15:35:21;;;;;;;8.32;5.32;;;;;;;;;;5011991;28;20049;-75
2022/09/04 15:38:24;;;;;;;7.10;4.80;;;;;;;;;;5013537;28;20021;-75
2022/09/04 15:41:02;;;;;;;9.75;5.65;;;;;;;;;;5013570;28;20465;-74
2022/09/04 15:43:45;;;;;;;4.95;4.20;;;;;;;;;;5029381;28;20040;-76
2022/09/04 15:46:41;;;;;;;8.23;4.90;;;;;;;;;;5013458;28;20025;-75
2022/09/04 15:49:44;;;;;;;7.97;4.80;;;;;;;;;;5028505;28;20125;-74
2022/09/04 15:52:28;;;;;;;11.40;5.40;;;;;;;;;;5028384;28;20065;-75
2022/09/04 15:55:05;;;;;;;5.40;4.25;;;;;;;;;;5013484;28;20038;-75
2022/09/04 15:57:45;;;;;;;9.52;4.93;;;;;;;;;;5037355;28;20053;-75
2022/09/04 16:00:14;;;;;;;8.52;4.25;;;;;;;;;;5031902;28;20025;-74
2022/09/04 16:02:50;;;;;;;6.60;4.78;;;;;;;;;;5030919;28;20037;-75
2022/09/04 16:05:24;;;;;;;5.55;4.00;;;;;;;;;;5032932;28;20083;-77
2022/09/04 16:08:19;;;;;;;6.90;4.30;;;;;;;;;;5033004;28;20028;-75
2022/09/04 16:10:56;;;;;;;5.68;4.15;;;;;;;;;;5032759;28;20071;-76
2022/09/04 16:13:24;;;;;;;4.63;3.85;;;;;;;;;;5019017;28;20394;-75
2022/09/04 16:15:56;;;;;;;6.85;4.25;;;;;;;;;;5027334;28;20418;-76
2022/09/04 16:18:45;;;;;;;7.57;4.57;;;;;;;;;;5028606;28;20497;-76
2022/09/04 16:21:23;;;;;;;6.22;4.10;;;;;;;;;;5011598;28;20029;-76
2022/09/04 16:23:53;;;;;;;8.57;5.20;;;;;;;;;;5031962;28;20389;-77
2022/09/04 16:26:25;;;;;;;15.65;8.80;;;;;;;;;;5022277;28;20030;-76
2022/09/04 16:29:01;;;;;;;6.82;4.50;;;;;;;;;;5030368;28;20034;-74
2022/09/04 16:31:34;;;;;;;6.05;4.40;;;;;;;;;;5011343;28;20065;-76